DAAP

Illizi Takhamalt Airport

Airport
ICAO code
DAAP
IATA Code
VVZ
Summary
ICAO Region
AFI
ICAO Territory
Location

, Illizi

Serving
Illizi
Elevation
1778 ft
Coordinates
26° 43' 25" N , 8° 37' 22" E
Metar
DAAP 041000Z 06004KT CAVOK 25/M07 Q1018

Runways

Designator Length Width Surface Rops
9/27 3000 45 ASP No/No

Airport map

Aerial View

SKYbrary Partners:

Safety knowledge contributed by: